createdAt,value
2018-07-22T00:02:11.445Z,1005.78
2018-07-22T00:07:07.366Z,1005.83
2018-07-22T00:12:03.067Z,1005.74
2018-07-22T00:16:58.979Z,1005.71
2018-07-22T00:21:55.050Z,1005.71
2018-07-22T00:26:52.007Z,1005.72
2018-07-22T00:31:47.569Z,1005.66
2018-07-22T00:36:44.408Z,1005.82
2018-07-22T00:41:40.982Z,1005.92
2018-07-22T00:46:37.804Z,1005.83
2018-07-22T00:51:34.445Z,1005.74
2018-07-22T00:56:30.120Z,1005.86
2018-07-22T01:01:27.044Z,1005.75
2018-07-22T01:06:23.686Z,1005.80
2018-07-22T01:11:19.339Z,1005.69
2018-07-22T01:16:15.960Z,1005.70
2018-07-22T01:21:12.303Z,1005.78
2018-07-22T01:26:08.845Z,1005.75
2018-07-22T01:31:05.501Z,1005.72
2018-07-22T01:36:00.980Z,1005.69
2018-07-22T01:40:57.876Z,1005.73
2018-07-22T01:45:53.188Z,1005.73
2018-07-22T01:50:49.236Z,1005.76
2018-07-22T01:55:44.928Z,1005.85
2018-07-22T02:00:40.752Z,1005.84
2018-07-22T02:05:37.627Z,1005.85
2018-07-22T02:10:33.231Z,1005.81
2018-07-22T02:15:29.097Z,1005.81
2018-07-22T02:20:24.821Z,1005.85
2018-07-22T02:25:21.557Z,1005.88
2018-07-22T02:30:18.378Z,1005.84
2018-07-22T02:35:13.844Z,1005.91
2018-07-22T02:40:09.626Z,1005.95
2018-07-22T02:45:05.411Z,1005.94
2018-07-22T02:50:01.535Z,1006.00
2018-07-22T02:54:57.335Z,1005.96
2018-07-22T02:59:53.509Z,1006.17
2018-07-22T03:04:49.595Z,1006.06
2018-07-22T03:09:45.489Z,1006.18
2018-07-22T03:14:41.530Z,1006.16
2018-07-22T03:19:37.068Z,1006.13
2018-07-22T03:24:33.411Z,1006.15
2018-07-22T03:29:30.472Z,1006.29
2018-07-22T03:34:26.176Z,1006.35
2018-07-22T03:39:22.059Z,1006.34
2018-07-22T03:44:17.909Z,1006.39
2018-07-22T03:49:13.748Z,1006.45
2018-07-22T03:54:09.531Z,1006.54
2018-07-22T03:59:05.253Z,1006.55
2018-07-22T04:04:00.907Z,1006.49
2018-07-22T04:08:57.782Z,1006.58
2018-07-22T04:13:53.465Z,1006.58
2018-07-22T04:18:49.187Z,1006.64
2018-07-22T04:23:45.146Z,1006.65
2018-07-22T04:28:42.025Z,1006.62
2018-07-22T04:33:37.584Z,1006.70
2018-07-22T04:38:33.808Z,1006.59
2018-07-22T04:43:29.940Z,1006.57
2018-07-22T04:48:26.534Z,1006.61
2018-07-22T04:53:23.518Z,1006.66
2018-07-22T04:58:19.402Z,1006.70
2018-07-22T05:03:16.607Z,1006.76
2018-07-22T05:08:12.577Z,1006.79
2018-07-22T05:13:08.863Z,1006.88
2018-07-22T05:18:06.160Z,1006.93
2018-07-22T05:23:02.697Z,1006.91
2018-07-22T05:27:59.348Z,1006.86
2018-07-22T05:32:54.726Z,1007.00
2018-07-22T05:37:51.262Z,1007.03
2018-07-22T05:42:47.244Z,1007.06
2018-07-22T05:47:43.538Z,1007.07
2018-07-22T05:52:40.755Z,1007.16
2018-07-22T05:57:37.921Z,1007.14
2018-07-22T06:02:34.117Z,1007.25
2018-07-22T06:07:31.106Z,1007.31
2018-07-22T06:12:27.142Z,1007.49
2018-07-22T06:17:22.290Z,1007.41
2018-07-22T06:22:18.061Z,1007.46
2018-07-22T06:27:14.310Z,1007.43
2018-07-22T06:32:11.041Z,1007.40
2018-07-22T06:37:07.247Z,1007.46
2018-07-22T06:42:03.054Z,1007.48
2018-07-22T06:46:59.205Z,1007.47
2018-07-22T06:51:56.161Z,1007.60
2018-07-22T06:56:51.960Z,1007.56
2018-07-22T07:01:49.147Z,1007.67
2018-07-22T07:06:45.034Z,1007.63
2018-07-22T07:11:41.076Z,1007.68
2018-07-22T07:16:37.262Z,1007.74
2018-07-22T07:21:34.510Z,1007.72
2018-07-22T07:26:30.303Z,1007.72
2018-07-22T07:31:26.307Z,1007.78
2018-07-22T07:36:22.240Z,1007.83
2018-07-22T07:41:18.393Z,1007.82
2018-07-22T07:46:14.639Z,1007.78
2018-07-22T07:51:10.751Z,1007.80
2018-07-22T07:56:07.034Z,1007.85
2018-07-22T08:01:05.675Z,1007.97
2018-07-22T08:06:04.496Z,1007.86
2018-07-22T08:11:03.725Z,1007.97
2018-07-22T08:16:01.476Z,1007.90
2018-07-22T08:20:58.353Z,1007.92
2018-07-22T08:25:55.367Z,1007.97
2018-07-22T08:30:52.125Z,1007.99
2018-07-22T08:35:48.601Z,1007.98
2018-07-22T08:40:45.897Z,1008.00
2018-07-22T08:45:41.949Z,1008.06
2018-07-22T08:50:38.127Z,1008.09
2018-07-22T08:55:34.837Z,1008.12
2018-07-22T09:00:31.846Z,1008.18
2018-07-22T09:05:28.773Z,1008.19
2018-07-22T09:10:26.158Z,1008.16
2018-07-22T09:15:22.505Z,1008.16
2018-07-22T09:20:19.818Z,1008.25
2018-07-22T09:25:15.516Z,1008.32
2018-07-22T09:30:11.675Z,1008.29
2018-07-22T09:35:08.069Z,1008.28
2018-07-22T09:40:05.435Z,1008.45
2018-07-22T09:45:01.280Z,1008.45
2018-07-22T09:49:57.838Z,1008.39
2018-07-22T09:54:54.339Z,1008.29
2018-07-22T09:59:51.223Z,1008.44
2018-07-22T10:04:48.230Z,1008.38
2018-07-22T10:09:43.854Z,1008.54
2018-07-22T10:14:40.140Z,1008.41
2018-07-22T10:19:36.426Z,1008.29
2018-07-22T10:24:32.870Z,1008.34
2018-07-22T10:29:29.354Z,1008.29
2018-07-22T10:34:25.676Z,1008.32
2018-07-22T10:39:21.772Z,1008.28
2018-07-22T10:44:17.506Z,1008.33
2018-07-22T10:49:14.052Z,1008.20
2018-07-22T10:54:12.138Z,1008.16
2018-07-22T10:59:07.981Z,1008.24
2018-07-22T11:04:05.731Z,1008.31
2018-07-22T11:09:01.790Z,1008.25
2018-07-22T11:13:57.496Z,1008.12
2018-07-22T11:18:55.041Z,1007.99
2018-07-22T11:23:49.118Z,1007.91
2018-07-22T11:28:45.536Z,1008.04
2018-07-22T11:33:43.706Z,1008.00
2018-07-22T11:38:39.305Z,1007.90
2018-07-22T11:43:32.137Z,1007.92
2018-07-22T11:48:27.658Z,1007.83
2018-07-22T11:53:22.353Z,1007.93
2018-07-22T11:58:18.726Z,1008.00
2018-07-22T12:03:15.475Z,1007.98
2018-07-22T12:08:12.084Z,1007.86
2018-07-22T12:13:08.551Z,1007.75
2018-07-22T12:18:07.158Z,1007.81
2018-07-22T12:23:06.405Z,1007.79
2018-07-22T12:27:59.584Z,1007.73
2018-07-22T12:32:54.027Z,1007.61
2018-07-22T12:37:49.035Z,1007.68
2018-07-22T12:42:44.583Z,1007.62
2018-07-22T12:47:40.202Z,1007.57
2018-07-22T12:52:39.056Z,1007.65
2018-07-22T12:57:37.272Z,1007.48
2018-07-22T13:02:31.638Z,1007.48
2018-07-22T13:07:26.213Z,1007.37
2018-07-22T13:12:21.609Z,1007.35
2018-07-22T13:17:18.762Z,1007.49
2018-07-22T13:22:14.148Z,1007.42
2018-07-22T13:27:11.725Z,1007.36
2018-07-22T13:32:07.089Z,1007.43
2018-07-22T13:37:02.348Z,1007.49
2018-07-22T13:41:58.994Z,1007.45
2018-07-22T13:46:55.847Z,1007.33
2018-07-22T13:51:52.596Z,1007.43
2018-07-22T13:56:48.727Z,1007.50
2018-07-22T14:01:45.912Z,1007.50
2018-07-22T14:06:41.584Z,1007.56
2018-07-22T14:11:37.947Z,1007.55
2018-07-22T14:16:33.623Z,1007.52
2018-07-22T14:21:29.172Z,1007.61
2018-07-22T14:26:24.852Z,1007.65
2018-07-22T14:31:21.745Z,1007.73
2018-07-22T14:36:17.567Z,1007.71
2018-07-22T14:41:14.636Z,1007.63
2018-07-22T14:46:10.639Z,1007.60
2018-07-22T14:51:06.801Z,1007.68
2018-07-22T14:56:02.814Z,1007.65
2018-07-22T15:00:59.676Z,1007.69
2018-07-22T15:05:55.202Z,1007.74
2018-07-22T15:10:52.114Z,1007.64
2018-07-22T15:15:47.919Z,1007.65
2018-07-22T15:20:44.072Z,1007.83
2018-07-22T15:25:39.939Z,1007.77
2018-07-22T15:30:37.082Z,1007.77
2018-07-22T15:35:33.864Z,1007.80
2018-07-22T15:40:29.860Z,1007.84
2018-07-22T15:45:26.123Z,1007.86
2018-07-22T15:50:21.958Z,1007.71
2018-07-22T15:55:17.886Z,1007.79
2018-07-22T16:00:14.255Z,1007.74
2018-07-22T16:05:10.009Z,1007.70
2018-07-22T16:10:06.090Z,1007.66
2018-07-22T16:15:02.140Z,1007.65
2018-07-22T16:19:58.247Z,1007.59
2018-07-22T16:24:54.280Z,1007.59
2018-07-22T16:29:50.422Z,1007.68
2018-07-22T16:34:46.998Z,1007.64
2018-07-22T16:39:43.135Z,1007.67
2018-07-22T16:44:39.349Z,1007.65
2018-07-22T16:49:35.533Z,1007.56
2018-07-22T16:54:32.606Z,1007.65
2018-07-22T16:59:29.393Z,1007.65
2018-07-22T17:04:24.978Z,1007.64
2018-07-22T17:09:20.971Z,1007.57
2018-07-22T17:14:17.386Z,1007.53
2018-07-22T17:19:13.143Z,1007.59
2018-07-22T17:24:08.987Z,1007.52
2018-07-22T17:29:05.780Z,1007.57
2018-07-22T17:34:02.462Z,1007.63
2018-07-22T17:38:59.041Z,1007.59
2018-07-22T17:43:55.539Z,1007.61
2018-07-22T17:48:51.151Z,1007.73
2018-07-22T17:53:47.364Z,1007.68
2018-07-22T17:58:43.306Z,1007.72
2018-07-22T18:03:39.162Z,1007.74
2018-07-22T18:08:35.617Z,1007.66
2018-07-22T18:13:31.525Z,1007.73
2018-07-22T18:18:28.094Z,1007.69
2018-07-22T18:23:23.871Z,1007.67
2018-07-22T18:28:19.681Z,1007.81
2018-07-22T18:33:16.688Z,1007.88
2018-07-22T18:38:12.382Z,1007.92
2018-07-22T18:43:08.426Z,1007.88
2018-07-22T18:48:05.506Z,1007.82
2018-07-22T18:53:02.751Z,1007.88
2018-07-22T18:57:58.534Z,1007.91
2018-07-22T19:02:54.627Z,1007.98
2018-07-22T19:07:51.776Z,1008.07
2018-07-22T19:12:48.753Z,1008.15
2018-07-22T19:17:44.562Z,1008.21
2018-07-22T19:22:41.445Z,1008.16
2018-07-22T19:27:37.362Z,1008.24
2018-07-22T19:32:33.376Z,1008.24
2018-07-22T19:37:29.335Z,1008.26
2018-07-22T19:42:25.297Z,1008.31
2018-07-22T19:47:22.571Z,1008.43
2018-07-22T19:52:18.312Z,1008.40
2018-07-22T19:57:14.794Z,1008.48
2018-07-22T20:02:11.128Z,1008.56
2018-07-22T20:07:07.254Z,1008.67
2018-07-22T20:12:03.837Z,1008.60
2018-07-22T20:17:00.091Z,1008.61
2018-07-22T20:21:56.187Z,1008.57
2018-07-22T20:26:52.301Z,1008.72
2018-07-22T20:31:48.276Z,1008.69
2018-07-22T20:36:45.237Z,1008.75
2018-07-22T20:41:41.875Z,1008.82
2018-07-22T20:46:37.563Z,1008.90
2018-07-22T20:51:33.410Z,1008.84
2018-07-22T20:56:29.138Z,1008.92
2018-07-22T21:01:25.452Z,1008.94
2018-07-22T21:06:21.295Z,1008.93
2018-07-22T21:11:18.361Z,1008.98
2018-07-22T21:16:13.861Z,1009.06
2018-07-22T21:21:09.767Z,1009.10
2018-07-22T21:26:05.678Z,1009.16
2018-07-22T21:31:01.639Z,1009.14
2018-07-22T21:35:57.356Z,1009.10
2018-07-22T21:40:54.193Z,1009.18
2018-07-22T21:45:49.624Z,1009.24
2018-07-22T21:50:45.442Z,1009.21
2018-07-22T21:55:41.494Z,1009.28
2018-07-22T22:00:37.488Z,1009.31
2018-07-22T22:05:34.612Z,1009.28
2018-07-22T22:10:30.327Z,1009.46
2018-07-22T22:15:26.189Z,1009.39
2018-07-22T22:20:21.864Z,1009.41
2018-07-22T22:25:19.254Z,1009.45
2018-07-22T22:30:15.790Z,1009.48
2018-07-22T22:35:11.374Z,1009.39
2018-07-22T22:40:07.156Z,1009.42
2018-07-22T22:45:03.524Z,1009.48
2018-07-22T22:50:00.708Z,1009.47
2018-07-22T22:54:56.336Z,1009.39
2018-07-22T22:59:52.283Z,1009.39
2018-07-22T23:04:48.201Z,1009.40
2018-07-22T23:09:44.152Z,1009.40
2018-07-22T23:14:40.073Z,1009.34
2018-07-22T23:19:35.890Z,1009.46
2018-07-22T23:24:32.684Z,1009.52
2018-07-22T23:29:28.211Z,1009.42
2018-07-22T23:34:24.030Z,1009.49
2018-07-22T23:39:20.242Z,1009.52
2018-07-22T23:44:16.214Z,1009.47
2018-07-22T23:49:13.341Z,1009.45
2018-07-22T23:54:09.467Z,1009.44
2018-07-22T23:59:05.340Z,1009.41
